Time;durP1;ratioP1;P1;durP2;ratioP2;P2;SDS_P1;SDS_P2;PMS_P1;PMS_P2;Temp;Humidity;BMP_temperature;BMP_pressure;BME280_temperature;BME280_humidity;BME280_pressure;Samples;Min_cycle;Max_cycle;Signal;HPM_P1;HPM_P2
2021/03/23 00:01:58;;;;;;;14.43;4.82;;;;;;;2.90;71.79;96941.81;5052953;28;20538;-67
2021/03/23 00:04:24;;;;;;;12.90;5.53;;;;;;;2.90;71.99;96944.50;5052817;28;20039;-67
2021/03/23 00:06:50;;;;;;;14.10;5.35;;;;;;;2.94;71.87;96942.13;5052283;28;20068;-67
2021/03/23 00:09:16;;;;;;;12.68;5.00;;;;;;;2.89;71.93;96950.94;5052951;28;20075;-67
2021/03/23 00:11:43;;;;;;;14.13;5.80;;;;;;;2.91;72.05;96948.00;5052203;28;20048;-66
2021/03/23 00:14:12;;;;;;;13.82;5.70;;;;;;;2.88;72.01;96950.13;5053158;28;20049;-67
2021/03/23 00:16:41;;;;;;;11.00;5.43;;;;;;;2.93;72.10;96945.88;5052419;28;20048;-67
2021/03/23 00:19:07;;;;;;;14.43;6.20;;;;;;;2.88;72.05;96939.38;5052756;28;20045;-67
2021/03/23 00:21:35;;;;;;;14.35;6.57;;;;;;;2.87;71.93;96945.81;5053238;28;20048;-66
2021/03/23 00:24:01;;;;;;;11.40;5.50;;;;;;;2.87;72.23;96943.13;5052661;28;20127;-67
2021/03/23 00:26:27;;;;;;;12.98;6.30;;;;;;;2.87;72.24;96942.28;5052555;28;20107;-67
2021/03/23 00:28:55;;;;;;;15.40;6.03;;;;;;;2.81;72.35;96948.69;5052134;28;20139;-67
2021/03/23 00:31:24;;;;;;;12.75;5.97;;;;;;;2.79;72.44;96946.28;5051935;28;21087;-67
2021/03/23 00:33:50;;;;;;;13.40;6.40;;;;;;;2.87;72.27;96948.50;5051712;28;20059;-67
2021/03/23 00:36:18;;;;;;;13.80;6.15;;;;;;;2.92;72.16;96946.91;5052498;28;20045;-66
2021/03/23 00:38:44;;;;;;;15.15;5.43;;;;;;;2.85;72.18;96945.25;5051823;28;20052;-66
2021/03/23 00:41:11;;;;;;;13.55;6.03;;;;;;;2.89;72.34;96942.88;5052330;28;20045;-67
2021/03/23 00:43:38;;;;;;;13.82;5.72;;;;;;;2.88;72.37;96950.13;5051550;28;20048;-67
2021/03/23 00:46:04;;;;;;;12.25;6.10;;;;;;;2.85;72.21;96947.94;5051891;28;20045;-67
2021/03/23 00:48:31;;;;;;;14.43;5.60;;;;;;;2.84;72.50;96943.63;5050867;28;20508;-67
2021/03/23 00:50:57;;;;;;;15.48;6.15;;;;;;;2.87;72.29;96939.59;5050597;28;20701;-67
2021/03/23 00:53:23;;;;;;;13.23;6.07;;;;;;;2.81;72.58;96944.13;5052011;28;20041;-67
2021/03/23 00:55:50;;;;;;;16.95;6.47;;;;;;;2.73;72.70;96941.91;5051631;28;20053;-66
2021/03/23 00:58:16;;;;;;;14.70;6.32;;;;;;;2.68;72.73;96932.97;5052092;28;20053;-67
2021/03/23 01:00:42;;;;;;;18.75;6.70;;;;;;;2.70;72.91;96930.84;5051500;28;20045;-67
2021/03/23 01:03:09;;;;;;;14.45;6.15;;;;;;;2.70;72.83;96937.03;5052158;28;20129;-67
2021/03/23 01:05:36;;;;;;;13.98;6.22;;;;;;;2.67;72.96;96924.09;5051105;28;20459;-66
2021/03/23 01:08:04;;;;;;;15.05;6.55;;;;;;;2.51;73.20;96927.69;5051431;28;20560;-67
2021/03/23 01:10:32;;;;;;;19.00;7.45;;;;;;;2.51;73.34;96933.88;5051717;28;20436;-67
2021/03/23 01:12:59;;;;;;;20.58;6.97;;;;;;;2.47;73.41;96926.56;5051665;28;20048;-67
2021/03/23 01:15:28;;;;;;;15.23;7.15;;;;;;;2.38;73.79;96931.56;5051383;28;20514;-67
2021/03/23 01:17:54;;;;;;;13.88;6.75;;;;;;;2.36;74.03;96936.41;5050993;28;20041;-67
2021/03/23 01:20:22;;;;;;;13.38;6.72;;;;;;;2.38;73.92;96928.06;5051451;28;20045;-67
2021/03/23 01:22:49;;;;;;;14.45;6.60;;;;;;;2.40;73.90;96936.69;5050863;28;20037;-67
2021/03/23 01:25:16;;;;;;;15.63;7.10;;;;;;;2.37;73.68;96932.66;5051712;28;20055;-67
2021/03/23 01:27:42;;;;;;;17.48;7.00;;;;;;;2.34;73.73;96930.44;5050606;28;20488;-67
2021/03/23 01:30:10;;;;;;;19.25;7.00;;;;;;;2.32;73.91;96933.38;5051452;28;20045;-67
2021/03/23 01:32:36;;;;;;;17.15;7.45;;;;;;;2.29;73.79;96928.50;5051182;28;20052;-66
2021/03/23 01:35:03;;;;;;;15.85;7.00;;;;;;;2.19;74.27;96928.38;5050917;28;20447;-67
2021/03/23 01:37:29;;;;;;;15.57;7.05;;;;;;;2.09;74.63;96925.59;5051315;28;20044;-66
2021/03/23 01:39:56;;;;;;;20.73;7.65;;;;;;;2.04;74.88;96922.84;5051097;28;20114;-66
2021/03/23 01:42:22;;;;;;;16.02;7.72;;;;;;;2.06;75.01;96926.09;5051007;28;20055;-67
2021/03/23 01:45:14;;;;;;;17.50;7.55;;;;;;;2.04;74.80;96922.84;5050290;28;20045;-66
2021/03/23 01:47:40;;;;;;;14.00;7.88;;;;;;;2.02;74.92;96920.38;5051348;28;20048;-67
2021/03/23 01:50:08;;;;;;;15.88;7.80;;;;;;;1.95;75.25;96918.97;5049982;28;20595;-67
2021/03/23 01:52:36;;;;;;;16.98;7.95;;;;;;;2.03;74.99;96918.50;5051099;28;20566;-67
2021/03/23 01:55:05;;;;;;;23.13;8.20;;;;;;;1.91;75.25;96917.84;5050263;28;20053;-67
2021/03/23 01:57:34;;;;;;;18.95;8.57;;;;;;;1.94;75.13;96914.66;5050805;28;20102;-67
2021/03/23 02:00:01;;;;;;;18.20;8.30;;;;;;;1.95;75.17;96913.59;5051024;28;20073;-66
2021/03/23 02:02:29;;;;;;;17.77;7.95;;;;;;;2.00;75.09;96916.34;5050138;28;20040;-67
2021/03/23 02:04:55;;;;;;;15.50;7.60;;;;;;;2.11;74.85;96907.34;5051165;28;20687;-66
2021/03/23 02:07:21;;;;;;;23.08;8.30;;;;;;;2.18;74.51;96912.53;5049554;28;20095;-67
2021/03/23 02:09:51;;;;;;;21.23;8.25;;;;;;;2.25;74.31;96903.22;5051290;28;20634;-67
2021/03/23 02:12:23;;;;;;;15.15;7.90;;;;;;;2.30;74.19;96910.53;5049637;28;20067;-67
2021/03/23 02:14:49;;;;;;;18.65;8.77;;;;;;;2.19;74.32;96906.88;5050791;28;20048;-66
2021/03/23 02:17:19;;;;;;;18.85;8.63;;;;;;;2.25;74.19;96908.59;5050098;28;20045;-66
2021/03/23 02:19:46;;;;;;;21.65;8.63;;;;;;;2.26;74.03;96910.22;5050125;28;20040;-67
2021/03/23 02:22:15;;;;;;;21.38;8.55;;;;;;;2.29;74.02;96907.00;5050269;28;20075;-67
2021/03/23 02:24:41;;;;;;;18.48;8.38;;;;;;;2.31;73.79;96893.34;5049788;28;20037;-66
2021/03/23 02:27:07;;;;;;;22.38;9.15;;;;;;;2.35;73.77;96903.34;5050570;28;20051;-67
2021/03/23 02:29:33;;;;;;;22.25;9.40;;;;;;;2.40;73.57;96893.69;5049587;28;20045;-66
2021/03/23 02:32:00;;;;;;;17.92;8.88;;;;;;;2.32;73.56;96901.13;5050987;28;20041;-66
2021/03/23 02:34:26;;;;;;;20.75;9.77;;;;;;;2.19;74.17;96896.13;5049653;28;20063;-66
2021/03/23 02:36:53;;;;;;;19.15;9.15;;;;;;;2.19;74.18;96896.13;5050423;28;20751;-67
2021/03/23 02:39:23;;;;;;;21.73;9.52;;;;;;;2.11;74.54;96895.78;5049479;28;20049;-67
2021/03/23 02:41:49;;;;;;;24.35;9.48;;;;;;;2.20;74.56;96895.09;5050097;28;20041;-66
2021/03/23 02:44:15;;;;;;;20.85;9.65;;;;;;;2.22;74.43;96903.72;5049948;28;20056;-67
2021/03/23 02:46:41;;;;;;;23.48;9.77;;;;;;;2.22;74.19;96895.66;5049771;28;20041;-67
2021/03/23 02:49:08;;;;;;;19.52;9.15;;;;;;;2.28;73.97;96896.53;5050242;28;20052;-67
2021/03/23 02:51:34;;;;;;;24.65;10.05;;;;;;;2.27;74.13;96895.72;5049322;28;20118;-67
2021/03/23 02:54:00;;;;;;;21.02;9.50;;;;;;;2.30;74.03;96900.59;5050599;28;20055;-66
2021/03/23 02:56:27;;;;;;;21.83;9.85;;;;;;;2.33;73.75;96905.44;5055240;28;20044;-67
2021/03/23 02:58:53;;;;;;;21.63;9.30;;;;;;;2.39;73.61;96906.31;5057040;28;20454;-67
2021/03/23 03:01:19;;;;;;;23.52;10.18;;;;;;;2.41;73.55;96904.19;5055748;28;20044;-66
2021/03/23 03:03:45;;;;;;;22.17;10.10;;;;;;;2.44;73.37;96910.94;5056795;28;20045;-67
2021/03/23 03:06:12;;;;;;;18.75;10.05;;;;;;;2.46;73.35;96898.06;5055871;28;20056;-67
2021/03/23 03:08:38;;;;;;;24.45;10.25;;;;;;;2.43;73.34;96909.31;5056508;28;20446;-66
2021/03/23 03:11:04;;;;;;;22.80;10.52;;;;;;;2.40;73.62;96910.63;5056466;28;20049;-67
2021/03/23 03:13:31;;;;;;;20.10;10.38;;;;;;;2.38;73.60;96918.13;5055904;28;20037;-67
2021/03/23 03:15:58;;;;;;;25.70;10.73;;;;;;;2.39;73.55;96913.56;5057218;28;20044;-67
2021/03/23 03:18:25;;;;;;;24.67;10.57;;;;;;;2.41;73.49;96916.84;5055606;28;20114;-67
2021/03/23 03:20:53;;;;;;;23.13;10.43;;;;;;;2.43;73.48;96920.06;5056972;28;20125;-66
2021/03/23 03:23:19;;;;;;;20.58;10.90;;;;;;;2.33;73.62;96916.19;5055439;28;20142;-67
2021/03/23 03:25:46;;;;;;;25.52;10.60;;;;;;;2.35;73.66;96918.66;5056637;28;20075;-66
2021/03/23 03:28:12;;;;;;;25.48;10.60;;;;;;;2.37;73.75;96921.09;5055634;28;20048;-67
2021/03/23 03:30:40;;;;;;;22.33;10.43;;;;;;;2.39;73.68;96918.94;5056395;28;20044;-67
2021/03/23 03:33:09;;;;;;;23.08;11.20;;;;;;;2.40;73.52;96917.88;5056065;28;20099;-67
2021/03/23 03:35:37;;;;;;;32.20;11.95;;;;;;;2.38;73.52;96922.69;5055993;28;20119;-67
2021/03/23 03:38:04;;;;;;;26.02;11.23;;;;;;;2.32;73.69;96924.53;5056378;28;20056;-67
2021/03/23 03:40:33;;;;;;;26.95;11.80;;;;;;;2.22;73.88;96917.16;5055780;28;20116;-67
2021/03/23 03:42:59;;;;;;;24.58;11.13;;;;;;;2.25;74.11;96918.53;5056886;28;20051;-66
2021/03/23 03:45:26;;;;;;;25.65;11.00;;;;;;;2.26;74.02;96915.59;5056126;28;20051;-67
2021/03/23 03:47:55;;;;;;;30.02;11.82;;;;;;;2.22;74.11;96919.84;5056580;28;20052;-67
2021/03/23 03:50:22;;;;;;;26.20;11.90;;;;;;;2.22;74.15;96919.03;5052643;28;20041;-67
2021/03/23 03:52:49;;;;;;;27.67;12.32;;;;;;;2.10;74.54;96921.84;5056414;28;20045;-66
2021/03/23 03:55:17;;;;;;;26.73;11.68;;;;;;;2.22;74.37;96919.84;5055849;28;20049;-67
2021/03/23 03:57:43;;;;;;;24.38;12.20;;;;;;;2.21;74.18;96918.22;5055785;28;20045;-67
2021/03/23 04:00:10;;;;;;;27.80;11.45;;;;;;;2.24;74.03;96920.38;5056232;28;20052;-67
2021/03/23 04:02:37;;;;;;;25.15;11.73;;;;;;;2.28;73.87;96921.50;5055625;28;20045;-67
2021/03/23 04:05:04;;;;;;;24.83;11.88;;;;;;;2.30;73.86;96924.78;5056338;28;20595;-67
2021/03/23 04:07:31;;;;;;;29.80;12.20;;;;;;;2.34;73.97;96931.25;5053178;28;20128;-67
2021/03/23 04:09:57;;;;;;;26.52;11.85;;;;;;;2.35;73.87;96927.53;5053531;28;20573;-67
2021/03/23 04:12:23;;;;;;;28.17;11.85;;;;;;;2.34;73.92;96923.19;5052114;28;20533;-67
2021/03/23 04:14:50;;;;;;;26.23;12.05;;;;;;;2.28;73.98;96918.81;5053075;28;20049;-67
2021/03/23 04:17:16;;;;;;;29.90;11.75;;;;;;;2.30;74.15;96921.28;5052341;28;20049;-67
2021/03/23 04:19:42;;;;;;;27.10;12.27;;;;;;;2.21;74.23;96915.53;5052011;28;20045;-66
2021/03/23 04:22:09;;;;;;;28.70;12.43;;;;;;;2.25;74.42;96918.53;5052848;28;20072;-66
2021/03/23 04:24:35;;;;;;;24.80;11.82;;;;;;;2.26;74.20;96920.97;5052021;28;20049;-66
2021/03/23 04:27:01;;;;;;;25.92;12.05;;;;;;;2.27;74.42;96922.59;5053171;28;20051;-67
2021/03/23 04:29:27;;;;;;;24.25;11.57;;;;;;;2.31;74.33;96929.09;5051478;28;20036;-67
2021/03/23 04:31:53;;;;;;;28.13;13.43;;;;;;;2.30;74.30;96922.09;5053171;28;20488;-67
2021/03/23 04:34:19;;;;;;;30.42;12.77;;;;;;;2.37;74.06;96934.53;5051532;28;20072;-67
2021/03/23 04:36:45;;;;;;;28.73;12.80;;;;;;;2.39;73.91;96929.69;5052856;28;20049;-67
2021/03/23 04:39:13;;;;;;;30.05;13.13;;;;;;;2.43;74.04;96937.00;5051654;28;20453;-66
2021/03/23 04:41:40;;;;;;;28.38;13.07;;;;;;;2.26;74.23;96931.72;5052358;28;20106;-67
2021/03/23 04:44:07;;;;;;;30.65;13.85;;;;;;;2.26;74.41;96937.09;5052145;28;20051;-67
2021/03/23 04:46:34;;;;;;;27.10;12.88;;;;;;;2.34;74.30;96936.63;5052090;28;20076;-67
2021/03/23 04:49:00;;;;;;;30.58;13.80;;;;;;;2.33;74.35;96940.38;5052140;28;20408;-67
2021/03/23 04:51:30;;;;;;;31.98;13.10;;;;;;;2.36;74.25;96939.09;5051307;28;20049;-67
2021/03/23 04:54:02;;;;;;;25.27;12.70;;;;;;;2.32;74.43;96946.81;5052761;28;20041;-66
2021/03/23 04:56:31;;;;;;;28.92;14.27;;;;;;;2.38;74.47;96949.56;5051102;28;20037;-67
2021/03/23 04:58:57;;;;;;;29.30;13.10;;;;;;;2.43;74.03;96946.94;5052445;28;20041;-66
2021/03/23 05:01:24;;;;;;;28.42;13.50;;;;;;;2.48;74.13;96949.69;5051357;28;20041;-67
2021/03/23 05:03:54;;;;;;;27.45;13.27;;;;;;;2.49;74.04;96951.31;5052064;28;20130;-67
2021/03/23 05:06:20;;;;;;;28.23;13.63;;;;;;;2.52;73.94;96953.50;5051358;28;20132;-67
2021/03/23 05:08:47;;;;;;;31.88;13.65;;;;;;;2.52;73.83;96959.69;5051441;28;20521;-66
2021/03/23 05:11:18;;;;;;;31.95;14.30;;;;;;;2.47;73.80;96958.81;5051598;28;20057;-67
2021/03/23 05:13:45;;;;;;;30.50;13.80;;;;;;;2.39;74.16;96956.56;5051000;28;20048;-66
2021/03/23 05:16:11;;;;;;;30.80;13.98;;;;;;;2.39;74.10;96956.56;5051844;28;20049;-67
2021/03/23 05:18:37;;;;;;;32.85;14.68;;;;;;;2.26;74.63;96947.84;5050577;28;20048;-67
2021/03/23 05:21:04;;;;;;;34.60;14.48;;;;;;;2.20;74.88;96956.91;5049906;28;20049;-67
2021/03/23 05:23:30;;;;;;;30.73;14.82;;;;;;;2.28;74.76;96967.19;5051306;28;20044;-67
2021/03/23 05:25:56;;;;;;;29.90;14.32;;;;;;;2.23;75.06;96969.00;5051547;28;20048;-67
2021/03/23 05:28:22;;;;;;;30.48;14.73;;;;;;;2.26;74.84;96963.97;5050726;28;20045;-66
2021/03/23 05:30:50;;;;;;;32.47;13.88;;;;;;;2.17;75.25;96965.44;5051185;28;20049;-67
2021/03/23 05:33:17;;;;;;;31.02;14.45;;;;;;;2.22;75.16;96968.19;5051160;28;20049;-67
2021/03/23 05:35:43;;;;;;;32.15;14.20;;;;;;;2.20;75.37;96974.91;5050584;28;20110;-66
2021/03/23 05:38:10;;;;;;;31.17;13.93;;;;;;;2.23;75.38;96977.88;5051422;28;20067;-67
2021/03/23 05:40:39;;;;;;;32.65;14.07;;;;;;;2.31;75.02;96982.03;5050389;28;20522;-67
2021/03/23 05:43:39;;;;;;;36.05;14.40;;;;;;;2.40;74.99;96977.81;5051464;28;20057;-67
2021/03/23 05:46:18;;;;;;;30.35;14.10;;;;;;;2.41;74.65;96987.53;5050752;28;20045;-67
2021/03/23 05:48:57;;;;;;;31.70;14.50;;;;;;;2.47;74.49;96986.53;5050680;28;20044;-67
2021/03/23 05:51:28;;;;;;;35.13;14.90;;;;;;;2.48;74.29;96992.72;5033291;28;20045;-67
2021/03/23 05:53:59;;;;;;;37.25;14.73;;;;;;;2.46;74.67;96994.84;5050378;28;20051;-67
2021/03/23 05:56:28;;;;;;;34.20;15.57;;;;;;;2.44;74.76;96989.69;5051301;28;20119;-67
2021/03/23 05:59:02;;;;;;;33.70;15.05;;;;;;;2.48;74.80;96988.13;5050414;28;20049;-66
2021/03/23 06:01:33;;;;;;;31.20;14.85;;;;;;;2.45;74.69;96993.19;5050869;28;20174;-67
2021/03/23 06:04:04;;;;;;;33.00;15.25;;;;;;;2.40;75.29;96990.44;5050690;28;20048;-67
2021/03/23 06:06:39;;;;;;;31.35;14.70;;;;;;;2.46;75.02;96995.66;5050208;28;20033;-66
2021/03/23 06:09:09;;;;;;;34.05;15.18;;;;;;;2.47;74.87;96996.47;5050614;28;20561;-67
2021/03/23 06:11:45;;;;;;;35.15;14.80;;;;;;;2.47;75.27;96996.47;5049828;28;20512;-66
2021/03/23 06:14:29;;;;;;;37.55;15.30;;;;;;;2.51;75.10;97003.78;5050812;28;20572;-67
2021/03/23 06:17:07;;;;;;;31.48;13.93;;;;;;;2.57;75.14;97001.97;5050059;28;20051;-66
2021/03/23 06:19:41;;;;;;;33.10;14.85;;;;;;;2.65;75.10;96998.81;5049908;28;20105;-67
2021/03/23 06:22:19;;;;;;;33.70;15.35;;;;;;;2.63;74.77;97005.53;5050431;28;20047;-67
2021/03/23 06:24:56;;;;;;;34.33;15.38;;;;;;;2.63;74.99;97010.91;5049799;28;20052;-66
2021/03/23 06:27:26;;;;;;;37.28;15.88;;;;;;;2.61;74.76;97005.78;5050516;28;20041;-66
2021/03/23 06:30:20;;;;;;;34.30;14.95;;;;;;;2.66;74.87;97011.19;5048939;28;20499;-66
2021/03/23 06:32:50;;;;;;;35.22;15.73;;;;;;;2.64;75.16;97012.53;5050101;28;20041;-67
2021/03/23 06:35:19;;;;;;;35.17;15.48;;;;;;;2.74;75.08;97016.13;5050133;28;20099;-67
2021/03/23 06:37:45;;;;;;;40.97;16.42;;;;;;;2.55;75.58;97014.81;5049846;28;20098;-66
2021/03/23 06:40:15;;;;;;;34.90;16.23;;;;;;;2.60;75.80;97017.56;5050226;28;20045;-67
2021/03/23 06:42:44;;;;;;;33.83;16.17;;;;;;;2.66;75.15;97016.56;5049642;28;20047;-67
2021/03/23 06:45:26;;;;;;;38.47;16.33;;;;;;;2.65;75.41;97025.72;5050438;28;20077;-67
2021/03/23 06:47:53;;;;;;;37.80;16.08;;;;;;;2.68;75.34;97025.22;5049487;28;20514;-66
2021/03/23 06:50:28;;;;;;;34.55;16.02;;;;;;;2.71;75.60;97019.31;5049230;28;20045;-67
2021/03/23 06:53:09;;;;;;;36.50;16.30;;;;;;;2.81;75.41;97029.38;5049627;28;20428;-66
2021/03/23 06:55:37;;;;;;;35.88;16.13;;;;;;;2.93;74.79;97023.88;5049286;28;20057;-66
2021/03/23 06:58:20;;;;;;;34.75;16.63;;;;;;;3.03;74.75;97032.06;5050131;28;20053;-67
2021/03/23 07:00:46;;;;;;;35.22;16.55;;;;;;;3.06;74.65;97032.34;5049475;28;20580;-66
2021/03/23 07:03:23;;;;;;;37.92;15.68;;;;;;;3.17;74.43;97035.16;5049993;28;20072;-66
2021/03/23 07:05:49;;;;;;;36.20;16.33;;;;;;;3.19;74.06;97030.34;5049484;28;20041;-66
2021/03/23 07:08:23;;;;;;;40.10;17.15;;;;;;;3.19;74.66;97031.16;5049426;28;20067;-66
2021/03/23 07:11:10;;;;;;;36.60;16.30;;;;;;;3.15;74.48;97038.09;5049838;28;20045;-66
2021/03/23 07:13:40;;;;;;;38.05;16.73;;;;;;;3.13;74.22;97040.22;5046539;28;20037;-66
2021/03/23 07:16:27;;;;;;;36.58;16.50;;;;;;;3.13;74.46;97041.06;5050162;28;20048;-67
2021/03/23 07:19:08;;;;;;;38.03;17.08;;;;;;;3.14;74.57;97040.00;5048734;28;20045;-66
2021/03/23 07:21:49;;;;;;;34.95;16.65;;;;;;;3.25;74.42;97046.28;5041907;28;20037;-66
2021/03/23 07:24:18;;;;;;;36.97;16.42;;;;;;;3.24;74.32;97044.66;5049086;28;20124;-74
2021/03/23 07:26:57;;;;;;;39.83;15.80;;;;;;;3.29;74.31;97036.66;5047496;28;20068;-72
2021/03/23 07:29:28;;;;;;;33.00;15.90;;;;;;;3.37;73.96;97044.25;5029961;28;20420;-72
2021/03/23 07:32:04;;;;;;;34.35;16.48;;;;;;;3.27;74.57;97044.13;5029253;28;20421;-72
2021/03/23 07:34:36;;;;;;;36.80;16.45;;;;;;;3.41;75.12;97049.94;5029773;28;20095;-71
2021/03/23 07:37:06;;;;;;;37.92;16.02;;;;;;;3.49;75.18;97048.66;5029397;28;20050;-72
2021/03/23 07:39:40;;;;;;;36.70;16.40;;;;;;;3.67;74.94;97048.28;5029823;28;20053;-72
2021/03/23 07:42:10;;;;;;;36.47;15.30;;;;;;;3.85;74.09;97049.75;5031808;28;20045;-72
2021/03/23 07:44:41;;;;;;;33.60;15.73;;;;;;;3.85;74.05;97047.88;5034228;28;20045;-71
2021/03/23 07:47:15;;;;;;;35.58;15.95;;;;;;;4.00;74.17;97049.06;5033902;28;20045;-71
2021/03/23 07:49:46;;;;;;;35.28;16.58;;;;;;;4.05;74.21;97054.50;5032790;28;20045;-71
2021/03/23 07:52:22;;;;;;;33.60;16.13;;;;;;;4.14;75.13;97058.34;5033507;28;20069;-71
2021/03/23 07:54:50;;;;;;;36.58;15.77;;;;;;;4.20;74.10;97051.91;5033210;28;20084;-71
2021/03/23 07:57:45;;;;;;;36.08;15.82;;;;;;;4.33;73.87;97056.84;5032937;28;20742;-72
2021/03/23 08:00:28;;;;;;;31.05;14.57;;;;;;;4.17;72.73;97063.19;5033671;28;20049;-71
2021/03/23 08:03:26;;;;;;;29.52;14.85;;;;;;;4.18;73.49;97062.16;5032746;28;20041;-71
2021/03/23 08:06:00;;;;;;;33.67;15.65;;;;;;;4.37;73.62;97055.22;5033247;28;20048;-72
2021/03/23 08:08:45;;;;;;;37.13;14.00;;;;;;;4.53;73.55;97055.31;5032890;28;20132;-72
2021/03/23 08:11:24;;;;;;;32.05;14.20;;;;;;;4.67;72.34;97059.16;5032075;28;20049;-72
2021/03/23 08:14:01;;;;;;;30.42;13.35;;;;;;;4.82;72.16;97059.25;5033763;28;20140;-72
2021/03/23 08:16:39;;;;;;;26.55;13.35;;;;;;;4.89;71.51;97065.19;5032418;28;20413;-72
2021/03/23 08:19:40;;;;;;;29.60;12.85;;;;;;;5.00;71.82;97066.03;5034605;28;20559;-72
2021/03/23 08:22:51;;;;;;;27.88;13.52;;;;;;;5.15;70.71;97063.41;5044847;28;20045;-72
2021/03/23 08:25:31;;;;;;;32.85;12.93;;;;;;;5.22;69.52;97068.56;4989801;28;20549;-72
2021/03/23 08:28:33;;;;;;;26.00;12.48;;;;;;;5.14;69.39;97066.38;5026595;28;20049;-72
2021/03/23 08:31:20;;;;;;;26.80;12.65;;;;;;;5.04;69.89;97069.03;4990936;28;20137;-71
2021/03/23 08:34:06;;;;;;;23.85;11.43;;;;;;;5.01;69.51;97077.66;5029381;28;20139;-71
2021/03/23 08:36:45;;;;;;;24.60;11.95;;;;;;;5.00;69.54;97065.25;5033137;28;20048;-71
2021/03/23 08:39:20;;;;;;;26.67;11.70;;;;;;;5.10;69.07;97074.19;5031881;28;20049;-71
2021/03/23 08:41:57;;;;;;;23.27;12.55;;;;;;;5.33;68.50;97075.63;5032430;28;20045;-73
2021/03/23 08:44:32;;;;;;;24.20;12.27;;;;;;;5.38;68.42;97077.50;5028384;28;20056;-71
2021/03/23 08:47:05;;;;;;;29.70;12.57;;;;;;;5.43;68.92;97075.63;5028649;28;20122;-72
2021/03/23 08:49:32;;;;;;;20.90;11.45;;;;;;;6.05;66.79;97075.69;5029444;28;20115;-71
2021/03/23 08:51:59;;;;;;;27.30;12.80;;;;;;;6.47;64.43;97086.19;5028199;28;20056;-71
2021/03/23 08:54:49;;;;;;;24.20;12.23;;;;;;;7.08;65.64;97083.31;5027821;28;20057;-72
2021/03/23 08:57:16;;;;;;;23.90;11.05;;;;;;;7.25;62.91;97080.25;5028956;28;20050;-71
2021/03/23 08:59:54;;;;;;;28.65;11.32;;;;;;;7.54;61.99;97078.47;5029269;28;20665;-72
2021/03/23 09:02:44;;;;;;;23.30;10.98;;;;;;;7.73;60.16;97088.66;5029208;28;20046;-71
2021/03/23 09:05:55;;;;;;;20.48;10.70;;;;;;;7.63;59.68;97088.72;5028109;28;20136;-71
2021/03/23 09:08:44;;;;;;;26.00;12.15;;;;;;;7.85;60.46;97089.91;5028976;28;20435;-70
2021/03/23 09:11:19;;;;;;;21.35;10.63;;;;;;;8.01;57.51;97079.75;5028896;28;20530;-69
2021/03/23 09:14:19;;;;;;;24.50;11.23;;;;;;;8.28;58.50;97083.88;5028409;28;20082;-70
2021/03/23 09:17:26;;;;;;;25.77;11.30;;;;;;;8.39;58.51;97085.41;5029517;28;20045;-70
2021/03/23 09:19:55;;;;;;;25.65;11.85;;;;;;;9.05;56.76;97083.91;5049118;28;20044;-71
2021/03/23 09:22:34;;;;;;;25.77;11.73;;;;;;;9.40;53.58;97086.19;5058148;28;20132;-71
2021/03/23 09:25:21;;;;;;;23.33;11.70;;;;;;;9.03;54.80;97080.66;5049271;28;20049;-71
2021/03/23 09:28:01;;;;;;;20.60;10.20;;;;;;;9.50;53.80;97079.81;5047949;28;20074;-70
2021/03/23 09:30:40;;;;;;;21.10;10.30;;;;;;;9.47;50.35;97069.50;5048791;28;20049;-71
2021/03/23 09:33:17;;;;;;;17.98;9.27;;;;;;;9.61;50.63;97073.13;5048498;28;20052;-71
2021/03/23 09:36:19;;;;;;;21.52;10.07;;;;;;;9.53;50.59;97067.53;5048146;28;20424;-71
2021/03/23 09:38:47;;;;;;;22.63;10.60;;;;;;;8.95;50.73;97076.69;5049071;28;20052;-71
2021/03/23 09:41:28;;;;;;;23.38;10.43;;;;;;;9.56;50.43;97067.75;5047698;28;20737;-70
2021/03/23 09:44:14;;;;;;;21.90;10.20;;;;;;;9.80;51.21;97069.56;5048180;28;20056;-70
2021/03/23 09:46:43;;;;;;;23.40;10.27;;;;;;;9.99;48.75;97067.66;5048182;28;20510;-71
2021/03/23 09:49:18;;;;;;;21.13;9.85;;;;;;;10.09;50.54;97056.59;5047112;28;20052;-70
2021/03/23 09:51:49;;;;;;;24.25;11.32;;;;;;;10.07;50.23;97058.78;5048923;28;20147;-71
2021/03/23 09:54:25;;;;;;;17.88;9.50;;;;;;;10.01;50.76;97060.00;5047504;28;20140;-70
2021/03/23 09:56:54;;;;;;;18.13;9.38;;;;;;;9.90;49.56;97064.78;5048277;28;20040;-70
2021/03/23 09:59:24;;;;;;;16.80;7.53;;;;;;;10.12;47.71;97060.63;5048122;28;20124;-70
2021/03/23 10:01:53;;;;;;;17.17;7.88;;;;;;;9.96;48.12;97056.53;5048522;28;20076;-70
2021/03/23 10:04:26;;;;;;;17.20;6.82;;;;;;;10.06;47.67;97057.19;5047799;28;20049;-70
2021/03/23 10:06:52;;;;;;;14.32;8.00;;;;;;;10.16;47.10;97057.00;5047874;28;20044;-70
2021/03/23 10:09:25;;;;;;;16.20;7.60;;;;;;;9.92;47.92;97056.34;5048346;28;20470;-71
2021/03/23 10:11:51;;;;;;;17.17;8.13;;;;;;;9.68;48.54;97057.22;5047455;28;20707;-70
2021/03/23 10:14:30;;;;;;;17.63;6.47;;;;;;;9.34;45.48;97056.63;5048128;28;20049;-70
2021/03/23 10:17:06;;;;;;;15.60;6.15;;;;;;;9.15;47.26;97054.72;5047276;28;20084;-70
2021/03/23 10:19:37;;;;;;;17.52;6.72;;;;;;;8.83;47.73;97058.09;5053338;28;20550;-70
2021/03/23 10:22:10;;;;;;;10.52;5.60;;;;;;;9.02;44.69;97047.25;5059916;28;20109;-70
2021/03/23 10:24:38;;;;;;;16.20;5.43;;;;;;;9.52;47.42;97047.69;5047230;28;20506;-70
2021/03/23 10:27:13;;;;;;;16.40;4.60;;;;;;;9.98;43.99;97038.84;5047511;28;20074;-70
2021/03/23 10:29:54;;;;;;;10.82;4.80;;;;;;;9.49;41.50;97053.69;5046022;28;20515;-70
2021/03/23 10:32:33;;;;;;;11.77;5.15;;;;;;;8.76;43.02;97052.19;5047303;28;20138;-70
2021/03/23 10:35:10;;;;;;;14.02;6.65;;;;;;;8.36;47.05;97058.88;5047103;28;20752;-71
2021/03/23 10:37:36;;;;;;;19.02;7.57;;;;;;;8.06;51.21;97055.31;5047174;28;20059;-70
2021/03/23 10:40:04;;;;;;;13.20;6.95;;;;;;;7.76;51.92;97055.53;5047467;28;20094;-71
2021/03/23 10:42:32;;;;;;;16.13;7.55;;;;;;;7.49;51.07;97056.81;5046837;28;20049;-69
2021/03/23 10:45:25;;;;;;;13.85;6.00;;;;;;;7.29;49.38;97056.94;5047312;28;20488;-69
2021/03/23 10:48:02;;;;;;;10.15;4.63;;;;;;;7.22;49.41;97056.44;5046734;28;20500;-71
2021/03/23 10:50:31;;;;;;;13.68;5.38;;;;;;;7.06;50.09;97059.22;5046911;28;20053;-72
2021/03/23 10:53:10;;;;;;;13.68;6.25;;;;;;;7.00;51.96;97054.91;5047312;28;20037;-72
2021/03/23 10:55:40;;;;;;;18.15;6.63;;;;;;;7.02;52.15;97049.22;5047163;28;20139;-72
2021/03/23 10:58:17;;;;;;;11.65;6.30;;;;;;;6.89;51.66;97064.19;5047073;28;20526;-72
2021/03/23 11:00:45;;;;;;;16.42;8.02;;;;;;;6.76;53.81;97057.44;5046466;28;20055;-72
2021/03/23 11:03:14;;;;;;;16.13;8.13;;;;;;;6.66;55.24;97054.75;5047086;28;20057;-72
2021/03/23 11:05:45;;;;;;;21.17;7.97;;;;;;;6.66;56.66;97053.97;5047086;28;20040;-72
2021/03/23 11:08:13;;;;;;;19.77;9.07;;;;;;;6.71;56.69;97052.03;5046924;28;20053;-71
2021/03/23 11:10:39;;;;;;;20.10;8.70;;;;;;;6.81;57.26;97048.50;5047252;28;20052;-71
2021/03/23 11:13:05;;;;;;;22.15;9.18;;;;;;;6.79;57.28;97058.78;5046294;28;20668;-71
2021/03/23 11:15:35;;;;;;;19.98;7.82;;;;;;;6.69;55.86;97048.81;5047085;28;20045;-72
2021/03/23 11:18:01;;;;;;;14.45;7.53;;;;;;;6.65;57.57;97049.63;5050342;28;20080;-72
2021/03/23 11:20:35;;;;;;;22.65;8.57;;;;;;;6.66;57.60;97046.66;5051084;28;20112;-72
2021/03/23 11:23:04;;;;;;;;;;;;;;;6.65;57.78;97045.03;5051017;28;20136;-72
2021/03/23 11:25:30;;;;;;;19.15;8.93;;;;;;;6.52;58.74;97049.13;5051085;28;19925;-72
2021/03/23 11:27:56;;;;;;;18.88;9.32;;;;;;;6.61;59.69;97051.25;5050294;28;20060;-72
2021/03/23 11:30:24;;;;;;;17.75;8.95;;;;;;;6.67;59.59;97050.16;5050676;28;20057;-72
2021/03/23 11:32:50;;;;;;;17.58;9.23;;;;;;;6.71;59.71;97054.75;5050521;28;20131;-72
2021/03/23 11:35:17;;;;;;;21.75;8.93;;;;;;;6.67;59.44;97050.16;5050562;28;20106;-72
2021/03/23 11:37:44;;;;;;;23.85;9.25;;;;;;;6.67;59.54;97050.97;5051438;28;20056;-72
2021/03/23 11:40:11;;;;;;;21.00;9.93;;;;;;;6.74;59.74;97051.50;5049834;28;20401;-72
2021/03/23 11:42:41;;;;;;;19.25;9.80;;;;;;;6.80;59.82;97049.59;5050971;28;20052;-72
2021/03/23 11:45:19;;;;;;;19.58;10.52;;;;;;;6.64;60.10;97046.13;5049394;28;20045;-72
2021/03/23 11:47:54;;;;;;;18.98;9.48;;;;;;;6.70;60.02;97052.31;5051132;28;20634;-73
2021/03/23 11:50:24;;;;;;;18.05;9.45;;;;;;;6.79;60.20;97058.78;5049522;28;20412;-71